Time;durP1;ratioP1;P1;durP2;ratioP2;P2;SDS_P1;SDS_P2;PMS_P1;PMS_P2;Temp;Humidity;BMP_temperature;BMP_pressure;BME280_temperature;BME280_humidity;BME280_pressure;Samples;Min_cycle;Max_cycle;Signal;HPM_P1;HPM_P2
2022/07/08 00:01:37;;;;;;;8.50;3.40;;;;;;;14.51;100.00;100016.48;105031;1271;59653;-70
2022/07/08 00:04:25;;;;;;;9.30;3.60;;;;;;;14.50;100.00;100018.00;105042;1271;61923;-72
2022/07/08 00:07:13;;;;;;;9.60;3.70;;;;;;;14.50;100.00;100024.98;104904;1271;73283;-74
2022/07/08 00:10:04;;;;;;;9.80;3.70;;;;;;;14.50;100.00;100025.73;105011;1273;68469;-72
2022/07/08 00:12:52;;;;;;;9.00;3.50;;;;;;;14.51;100.00;100028.11;104978;1273;74673;-73
2022/07/08 00:15:41;;;;;;;9.30;3.60;;;;;;;14.52;100.00;100031.61;105173;1273;59733;-69
2022/07/08 00:18:29;;;;;;;10.20;3.40;;;;;;;14.54;100.00;100034.55;105040;1274;61977;-73
2022/07/08 00:21:17;;;;;;;7.40;3.50;;;;;;;14.57;100.00;100035.42;104999;1272;74645;-72
2022/07/08 00:24:06;;;;;;;7.40;4.10;;;;;;;14.57;100.00;100033.39;105220;1273;68236;-72
2022/07/08 00:26:56;;;;;;;8.50;3.30;;;;;;;14.58;100.00;100037.08;104938;1273;71699;-72
2022/07/08 00:29:44;;;;;;;9.10;3.40;;;;;;;14.60;100.00;100039.56;104952;1273;59643;-71
2022/07/08 00:32:32;;;;;;;9.10;3.80;;;;;;;14.60;100.00;100039.37;104824;1274;60373;-73
2022/07/08 00:35:20;;;;;;;7.40;3.50;;;;;;;14.60;100.00;100032.90;104933;1273;74803;-71
2022/07/08 00:38:08;;;;;;;9.20;3.90;;;;;;;14.62;100.00;100034.39;104928;1273;67343;-72
2022/07/08 00:40:56;;;;;;;9.20;3.90;;;;;;;14.62;100.00;100033.35;104830;1273;74412;-70
2022/07/08 00:43:47;;;;;;;8.40;2.80;;;;;;;14.59;100.00;100027.30;104841;1274;60717;-71
2022/07/08 00:46:34;;;;;;;9.20;3.90;;;;;;;14.56;100.00;100026.73;104812;1272;60654;-73
2022/07/08 00:49:23;;;;;;;8.80;3.70;;;;;;;14.54;100.00;100029.20;104933;1273;73643;-71
2022/07/08 00:52:11;;;;;;;9.10;4.20;;;;;;;14.54;100.00;100025.28;105076;1274;67909;-71
2022/07/08 00:55:01;;;;;;;9.70;3.90;;;;;;;14.54;100.00;100023.34;104934;1273;73157;-73
2022/07/08 00:57:50;;;;;;;9.10;4.40;;;;;;;14.55;100.00;100023.26;104870;1273;60040;-71
2022/07/08 01:00:38;;;;;;;10.70;4.40;;;;;;;14.57;100.00;100023.41;104844;1274;59621;-69
2022/07/08 01:03:27;;;;;;;9.10;4.20;;;;;;;14.57;100.00;100024.08;105052;1274;74730;-71
2022/07/08 01:06:16;;;;;;;9.50;4.80;;;;;;;14.58;100.00;100025.58;104948;1273;68371;-72
2022/07/08 01:09:04;;;;;;;8.80;4.00;;;;;;;14.59;100.00;100027.67;104986;1271;74348;-72
2022/07/08 01:11:52;;;;;;;9.00;4.00;;;;;;;14.59;100.00;100024.47;104912;1271;59759;-73
2022/07/08 01:14:40;;;;;;;9.40;4.30;;;;;;;14.58;100.00;100026.90;104933;1271;62070;-71
2022/07/08 01:17:28;;;;;;;9.30;3.90;;;;;;;14.58;100.00;100027.08;105065;1271;73677;-72
2022/07/08 01:20:16;;;;;;;13.70;4.90;;;;;;;14.57;100.00;100021.40;104997;1271;68520;-73
2022/07/08 01:23:05;;;;;;;9.60;4.60;;;;;;;14.58;100.00;100022.25;104925;1272;73125;-74
2022/07/08 01:25:54;;;;;;;10.40;4.70;;;;;;;14.59;100.00;100020.36;105129;1271;59764;-71
2022/07/08 01:28:43;;;;;;;11.40;4.80;;;;;;;14.61;100.00;100020.85;104952;1271;60667;-72
2022/07/08 01:31:31;;;;;;;9.00;4.30;;;;;;;14.63;100.00;100018.61;104974;1274;74717;-72
2022/07/08 01:34:20;;;;;;;9.60;4.80;;;;;;;14.63;100.00;100021.96;104883;1274;66901;-71
2022/07/08 01:37:08;;;;;;;8.40;4.20;;;;;;;14.63;100.00;100021.40;104918;1271;72926;-72
2022/07/08 01:40:04;;;;;;;8.40;4.20;;;;;;;14.65;100.00;100021.10;105187;1271;59681;-70
2022/07/08 01:42:52;;;;;;;8.50;3.60;;;;;;;14.65;100.00;100021.45;104956;1271;60597;-73
2022/07/08 01:45:40;;;;;;;9.20;4.30;;;;;;;14.67;100.00;100023.64;105113;1271;72272;-71
2022/07/08 01:48:28;;;;;;;9.80;4.90;;;;;;;14.65;100.00;100020.17;104954;1271;66754;-72
2022/07/08 01:51:16;;;;;;;8.70;4.50;;;;;;;14.65;100.00;100021.27;105041;1271;74364;-71
2022/07/08 01:54:04;;;;;;;9.00;4.30;;;;;;;14.64;100.00;100015.08;104964;1271;59698;-74
2022/07/08 01:57:13;;;;;;;9.00;4.50;;;;;;;14.65;100.00;100017.20;105000;1271;61034;-74
2022/07/08 02:00:01;;;;;;;9.20;4.20;;;;;;;14.66;100.00;100021.75;105122;1271;74622;-75
2022/07/08 02:02:57;;;;;;;11.60;4.80;;;;;;;14.66;100.00;100021.75;105023;1271;65485;-73
2022/07/08 02:05:46;;;;;;;9.30;4.70;;;;;;;14.65;100.00;100018.61;105011;1272;74947;-73
2022/07/08 02:08:34;;;;;;;10.00;5.00;;;;;;;14.65;100.00;100016.96;105039;1271;60561;-73
2022/07/08 02:14:28;;;;;;;7.90;4.00;;;;;;;14.67;100.00;100024.82;105183;1271;74325;-72
2022/07/08 02:17:20;;;;;;;11.50;5.20;;;;;;;14.68;100.00;100027.61;104919;1274;69402;-72
2022/07/08 02:20:11;;;;;;;10.70;4.80;;;;;;;14.68;100.00;100028.69;104947;1271;74320;-68
2022/07/08 02:22:59;;;;;;;10.20;4.80;;;;;;;14.68;100.00;100032.56;105260;1271;60961;-72
2022/07/08 02:25:47;;;;;;;9.50;4.20;;;;;;;14.70;100.00;100029.55;104985;1271;61505;-72
2022/07/08 02:28:35;;;;;;;9.00;4.90;;;;;;;14.70;100.00;100034.37;104829;1272;72965;-74
2022/07/08 02:31:24;;;;;;;9.50;4.10;;;;;;;14.70;100.00;100034.56;105315;1271;68440;-73
2022/07/08 02:34:13;;;;;;;9.40;4.20;;;;;;;14.71;100.00;100031.39;105009;1272;72385;-72
2022/07/08 02:37:01;;;;;;;8.50;4.20;;;;;;;14.74;100.00;100037.14;104992;1271;61307;-74
2022/07/08 02:39:49;;;;;;;10.50;4.70;;;;;;;14.75;100.00;100033.83;105221;1271;61474;-75
2022/07/08 02:42:37;;;;;;;9.90;4.20;;;;;;;14.77;100.00;100033.69;104970;1272;72090;-72
2022/07/08 02:45:25;;;;;;;13.50;4.80;;;;;;;14.81;100.00;100037.61;104904;1271;69698;-71
2022/07/08 02:48:13;;;;;;;11.60;4.60;;;;;;;14.86;100.00;100037.27;104896;1271;72135;-72
2022/07/08 02:51:03;;;;;;;10.30;4.30;;;;;;;14.90;100.00;100036.74;104875;1273;60781;-72
2022/07/08 02:53:51;;;;;;;9.10;4.50;;;;;;;14.91;100.00;100032.30;105089;1271;61792;-71
2022/07/08 02:56:39;;;;;;;10.20;4.40;;;;;;;14.94;100.00;100035.45;105037;1271;72222;-70
2022/07/08 02:59:27;;;;;;;8.20;3.90;;;;;;;14.95;100.00;100039.59;105015;1271;68529;-71
2022/07/08 03:02:15;;;;;;;10.20;4.00;;;;;;;14.97;100.00;100040.16;104866;1273;74617;-70
2022/07/08 03:05:05;;;;;;;7.90;3.70;;;;;;;15.01;100.00;100040.89;105072;1271;61394;-70
2022/07/08 03:07:53;;;;;;;8.40;4.20;;;;;;;15.06;100.00;100043.94;104877;1271;59605;-70
2022/07/08 03:10:41;;;;;;;9.10;4.30;;;;;;;15.11;100.00;100047.02;105321;1271;73678;-71
2022/07/08 03:13:30;;;;;;;8.90;4.50;;;;;;;15.17;100.00;100047.00;104923;1271;67825;-71
2022/07/08 03:16:19;;;;;;;8.40;3.90;;;;;;;15.23;100.00;100052.00;105143;1271;73464;-71
2022/07/08 03:19:08;;;;;;;11.90;4.10;;;;;;;15.27;100.00;100050.85;105483;1271;60277;-70
2022/07/08 03:21:55;;;;;;;11.00;4.70;;;;;;;15.33;100.00;100053.30;105274;1271;62462;-70
2022/07/08 03:24:43;;;;;;;12.20;4.30;;;;;;;15.39;100.00;100058.85;105207;1271;74746;-71
2022/07/08 03:27:32;;;;;;;8.30;4.40;;;;;;;15.42;100.00;100057.20;105102;1271;66865;-68
2022/07/08 03:30:19;;;;;;;8.70;4.00;;;;;;;15.47;100.00;100056.54;104924;1272;73577;-69
2022/07/08 03:33:08;;;;;;;8.00;4.00;;;;;;;15.53;100.00;100058.30;104954;1271;59716;-70
2022/07/08 03:35:56;;;;;;;9.20;4.20;;;;;;;15.59;99.98;100061.65;105026;1271;60453;-72
2022/07/08 03:38:44;;;;;;;8.00;3.30;;;;;;;15.65;99.99;100059.43;104887;1274;74800;-69
2022/07/08 03:41:33;;;;;;;11.20;4.30;;;;;;;15.71;99.68;100061.80;105027;1271;68280;-70
2022/07/08 03:44:21;;;;;;;10.30;4.60;;;;;;;15.76;99.42;100059.27;104942;1271;74577;-71
2022/07/08 03:47:09;;;;;;;10.30;4.50;;;;;;;15.81;99.16;100059.48;104938;1271;59809;-72
2022/07/08 03:49:57;;;;;;;10.00;4.60;;;;;;;15.84;98.87;100058.87;105004;1271;62033;-71
2022/07/08 03:52:46;;;;;;;12.10;5.00;;;;;;;15.88;98.70;100063.14;105009;1271;73727;-69
2022/07/08 03:55:34;;;;;;;10.70;4.50;;;;;;;15.93;98.60;100061.80;104966;1271;67184;-70
2022/07/08 03:58:22;;;;;;;8.30;4.40;;;;;;;15.96;98.33;100066.23;104761;1271;73352;-70
2022/07/08 04:01:10;;;;;;;11.20;4.70;;;;;;;16.03;98.22;100068.09;105436;1271;61560;-71
2022/07/08 04:03:59;;;;;;;8.90;4.60;;;;;;;16.09;97.77;100069.50;104841;1271;61409;-70
2022/07/08 04:06:47;;;;;;;11.20;4.50;;;;;;;16.14;97.45;100067.51;105014;1271;73491;-69
2022/07/08 04:09:35;;;;;;;9.10;4.20;;;;;;;16.19;97.35;100071.45;105011;1271;69394;-72
2022/07/08 04:12:23;;;;;;;8.70;4.30;;;;;;;16.27;97.06;100074.79;105215;1272;73065;-73
2022/07/08 04:15:12;;;;;;;9.30;3.80;;;;;;;16.38;96.66;100081.61;104872;1271;60308;-73
2022/07/08 04:18:01;;;;;;;7.80;3.70;;;;;;;16.43;96.13;100085.55;104853;1271;60553;-73
2022/07/08 04:20:49;;;;;;;9.60;4.20;;;;;;;16.50;96.09;100086.38;105108;1271;73490;-69
2022/07/08 04:23:38;;;;;;;9.70;4.40;;;;;;;16.63;95.54;100092.48;104996;1273;68323;-72
2022/07/08 04:26:31;;;;;;;11.10;4.40;;;;;;;16.72;95.01;100086.30;104868;1270;73179;-70
2022/07/08 04:29:19;;;;;;;9.50;4.30;;;;;;;16.80;94.56;100088.89;104996;1273;60804;-68
2022/07/08 04:32:07;;;;;;;8.00;3.60;;;;;;;16.90;93.87;100086.67;104856;1271;62219;-70
2022/07/08 04:34:59;;;;;;;10.40;3.80;;;;;;;16.98;93.02;100086.86;104937;1271;71784;-71
2022/07/08 04:37:48;;;;;;;12.10;4.20;;;;;;;17.06;92.65;100083.74;104911;1271;68893;-69
2022/07/08 04:40:37;;;;;;;10.70;3.50;;;;;;;17.15;92.35;100078.64;104840;1274;76682;-70
2022/07/08 04:43:25;;;;;;;11.30;3.70;;;;;;;17.22;91.68;100078.14;104945;1271;59898;-71
2022/07/08 04:46:14;;;;;;;9.30;3.40;;;;;;;17.22;91.32;100076.51;104928;1271;60084;-71
2022/07/08 04:49:02;;;;;;;9.80;3.30;;;;;;;17.24;91.45;100078.80;104905;1272;73956;-70
2022/07/08 04:51:51;;;;;;;10.50;3.90;;;;;;;17.31;91.29;100083.61;104867;1271;66849;-70
2022/07/08 04:54:39;;;;;;;7.80;3.40;;;;;;;17.34;90.94;100087.38;105048;1271;71350;-70
2022/07/08 04:57:27;;;;;;;9.00;3.70;;;;;;;17.36;90.52;100083.25;104766;1272;59701;-71
2022/07/08 05:00:15;;;;;;;8.30;3.30;;;;;;;17.31;90.05;100090.38;104855;1272;60468;-70
2022/07/08 05:03:03;;;;;;;8.30;3.70;;;;;;;17.30;90.79;100091.84;105094;1272;74014;-69
2022/07/08 05:05:54;;;;;;;8.20;3.00;;;;;;;17.34;90.63;100097.34;104814;1271;66795;-70
2022/07/08 05:08:42;;;;;;;10.70;3.70;;;;;;;17.33;90.51;100092.89;104883;1272;72822;-70
2022/07/08 05:11:32;;;;;;;8.80;3.30;;;;;;;17.38;90.46;100097.61;104821;1271;59692;-69
2022/07/08 05:14:20;;;;;;;9.50;3.50;;;;;;;17.43;90.26;100103.35;105000;1271;59761;-70
2022/07/08 05:17:08;;;;;;;7.60;3.10;;;;;;;17.49;89.75;100099.13;104963;1270;73856;-71
2022/07/08 05:19:56;;;;;;;13.20;3.30;;;;;;;17.55;89.52;100103.35;105138;1271;68186;-72
2022/07/08 05:22:45;;;;;;;6.90;3.10;;;;;;;17.57;89.20;100103.11;105036;1273;248016;-72
2022/07/08 05:25:33;;;;;;;7.80;2.90;;;;;;;17.59;89.11;100102.71;105111;1272;60932;-70
2022/07/08 05:28:21;;;;;;;8.90;3.30;;;;;;;17.60;88.87;100104.75;105625;1271;61606;-71
2022/07/08 05:31:09;;;;;;;8.00;3.10;;;;;;;17.68;88.84;100106.85;105029;1271;73755;-70
2022/07/08 05:33:58;;;;;;;6.80;3.10;;;;;;;17.78;88.07;100105.52;105311;1271;68044;-76
2022/07/08 05:36:47;;;;;;;9.60;2.80;;;;;;;17.85;87.46;100106.24;105113;1271;71796;-73
2022/07/08 05:39:36;;;;;;;10.30;3.70;;;;;;;17.82;87.20;100111.96;105059;1271;59676;-74
2022/07/08 05:42:24;;;;;;;7.50;2.90;;;;;;;17.82;87.41;100113.74;105076;1271;62488;-76
2022/07/08 05:45:13;;;;;;;7.40;3.10;;;;;;;17.87;87.20;100115.36;105150;1271;73891;-74
2022/07/08 05:48:01;;;;;;;7.40;3.00;;;;;;;17.89;86.58;100113.89;105415;1271;69460;-67
2022/07/08 05:50:49;;;;;;;7.60;2.90;;;;;;;17.95;86.86;100112.50;104922;1271;73198;-78
2022/07/08 05:53:37;;;;;;;8.20;2.30;;;;;;;18.35;85.59;100113.24;105393;1271;61249;-75
2022/07/08 05:56:25;;;;;;;9.80;3.40;;;;;;;18.56;84.04;100111.80;105380;1271;59652;-80
2022/07/08 05:59:21;;;;;;;7.20;2.70;;;;;;;18.75;82.94;100108.11;105263;1271;73725;-73
2022/07/08 06:02:09;;;;;;;10.20;3.00;;;;;;;18.90;82.61;100108.10;105200;1271;68951;-80
2022/07/08 06:04:57;;;;;;;9.80;6.40;;;;;;;18.98;81.96;100109.66;104974;1271;72728;-79
2022/07/08 06:07:47;;;;;;;9.50;2.50;;;;;;;18.99;81.58;100112.63;105381;1271;60598;-74
2022/07/08 06:10:35;;;;;;;6.80;2.50;;;;;;;18.94;80.54;100106.20;105164;1271;59650;-75
2022/07/08 06:13:23;;;;;;;6.40;2.30;;;;;;;18.87;80.37;100115.46;105351;1271;71735;-73
2022/07/08 06:16:12;;;;;;;8.50;2.60;;;;;;;18.83;80.91;100113.11;105169;1271;69745;-73
2022/07/08 06:19:00;;;;;;;5.50;2.10;;;;;;;19.00;80.62;100113.04;105172;1271;72725;-75
2022/07/08 06:21:48;;;;;;;7.00;2.40;;;;;;;19.23;79.77;100115.73;105141;1271;59674;-75
2022/07/08 06:24:37;;;;;;;8.50;2.40;;;;;;;19.55;78.95;100115.71;105138;1271;60332;-74
2022/07/08 06:27:27;;;;;;;6.60;2.10;;;;;;;20.55;75.37;100115.03;105669;1271;72008;-79
2022/07/08 06:30:15;;;;;;;8.60;2.30;;;;;;;21.63;70.95;100114.67;105286;1271;66948;-76
2022/07/08 06:33:05;;;;;;;13.30;2.40;;;;;;;21.86;68.00;100111.73;105020;1271;72160;-75
2022/07/08 06:35:54;;;;;;;12.90;2.40;;;;;;;21.86;67.00;100116.11;105268;1271;59657;-76
2022/07/08 06:38:41;;;;;;;7.90;2.10;;;;;;;21.67;66.56;100117.67;105201;1271;61609;-76
2022/07/08 06:41:31;;;;;;;7.10;1.80;;;;;;;21.50;67.41;100125.87;105066;1271;74437;-78
2022/07/08 06:44:19;;;;;;;7.20;2.00;;;;;;;21.40;68.47;100122.66;105125;1271;69708;-75
2022/07/08 06:47:10;;;;;;;6.50;1.50;;;;;;;21.22;68.84;100133.75;105030;1271;72043;-76
2022/07/08 06:50:08;;;;;;;4.90;1.30;;;;;;;20.68;71.44;100133.87;104985;1273;59696;-78
2022/07/08 06:52:57;;;;;;;6.50;1.70;;;;;;;20.19;74.17;100134.20;104779;1272;60278;-76
2022/07/08 06:55:45;;;;;;;7.40;1.40;;;;;;;19.83;75.84;100140.05;105117;1271;72549;-76
2022/07/08 06:58:33;;;;;;;4.40;1.10;;;;;;;19.60;76.69;100139.36;105280;1271;68502;-78
2022/07/08 07:01:21;;;;;;;5.60;1.60;;;;;;;19.48;77.71;100136.80;104937;1271;72625;-74
2022/07/08 07:04:09;;;;;;;5.30;1.40;;;;;;;19.47;78.48;100139.27;104820;1271;59701;-75
2022/07/08 07:06:58;;;;;;;5.80;1.30;;;;;;;19.44;79.20;100141.06;105155;1271;59573;-76
2022/07/08 07:09:46;;;;;;;5.30;1.50;;;;;;;19.37;79.01;100140.02;104865;1274;73310;-76
2022/07/08 07:12:34;;;;;;;5.30;1.30;;;;;;;19.23;79.71;100143.91;105514;1271;66529;-76
2022/07/08 07:15:22;;;;;;;4.80;1.30;;;;;;;19.16;80.47;100151.59;105219;1272;73378;-77
2022/07/08 07:18:10;;;;;;;4.50;1.20;;;;;;;19.17;80.59;100159.61;105097;1271;59692;-76
2022/07/08 07:20:58;;;;;;;5.00;1.20;;;;;;;19.19;80.84;100158.63;105160;1271;59580;-78
2022/07/08 07:23:46;;;;;;;4.50;1.10;;;;;;;19.13;80.84;100162.33;105042;1271;73362;-73
2022/07/08 07:26:36;;;;;;;5.60;1.00;;;;;;;19.05;80.98;100168.99;104872;1271;68570;-72
2022/07/08 07:29:24;;;;;;;5.50;1.20;;;;;;;18.95;80.77;100171.19;105140;1272;73289;-73
2022/07/08 07:32:12;;;;;;;5.20;1.10;;;;;;;18.82;81.36;100169.52;104701;1272;59795;-74
2022/07/08 07:35:00;;;;;;;6.40;1.10;;;;;;;18.67;81.34;100175.10;105249;1271;61205;-74
2022/07/08 07:37:48;;;;;;;5.00;1.10;;;;;;;18.55;82.11;100177.13;105207;1271;73229;-73
2022/07/08 07:40:37;;;;;;;5.00;1.30;;;;;;;18.42;82.10;100176.09;105135;1271;69264;-73
2022/07/08 07:43:25;;;;;;;4.60;1.20;;;;;;;18.33;82.64;100181.13;105300;1271;72666;-73
2022/07/08 07:46:14;;;;;;;5.20;1.10;;;;;;;18.25;83.24;100186.84;105100;1271;59678;-74
2022/07/08 07:49:03;;;;;;;5.20;1.10;;;;;;;18.19;83.53;100191.95;105430;1271;61549;-78
2022/07/08 07:51:51;;;;;;;4.80;1.20;;;;;;;18.13;83.86;100191.52;105297;1271;71734;-78
2022/07/08 07:54:39;;;;;;;4.10;1.10;;;;;;;18.13;84.44;100191.64;105041;1271;68099;-77
2022/07/08 07:57:27;;;;;;;4.70;1.40;;;;;;;18.17;84.83;100190.77;105096;1271;72620;-77
2022/07/08 08:00:17;;;;;;;4.80;1.10;;;;;;;18.25;84.80;100194.92;105054;1270;59629;-77
2022/07/08 08:03:05;;;;;;;4.60;1.20;;;;;;;18.29;83.43;100199.21;104961;1272;59712;-76
2022/07/08 08:05:53;;;;;;;4.30;1.00;;;;;;;18.31;82.76;100198.23;105066;1271;73031;-75
2022/07/08 08:08:41;;;;;;;4.40;1.10;;;;;;;18.38;82.17;100204.67;105026;1271;68945;-77
2022/07/08 08:11:29;;;;;;;5.20;1.10;;;;;;;18.48;81.98;100205.05;105149;1271;73177;-77
2022/07/08 08:14:17;;;;;;;5.00;1.10;;;;;;;18.53;81.66;100203.80;105311;1271;59710;-76
2022/07/08 08:17:05;;;;;;;4.10;1.00;;;;;;;18.53;80.98;100204.70;105789;1271;61073;-77
2022/07/08 08:19:53;;;;;;;4.10;1.10;;;;;;;18.58;80.97;100211.12;105212;1271;73167;-79
2022/07/08 08:22:41;;;;;;;4.40;1.00;;;;;;;18.59;80.68;100212.84;105331;1271;67157;-77
2022/07/08 08:25:49;;;;;;;4.50;1.20;;;;;;;18.55;80.58;100214.52;105291;1271;71698;-76
2022/07/08 08:28:37;;;;;;;4.60;1.10;;;;;;;18.54;80.45;100217.02;105681;1271;59774;-78
2022/07/08 08:31:26;;;;;;;5.30;1.00;;;;;;;18.59;80.51;100219.52;105317;1271;60479;-77
2022/07/08 08:34:14;;;;;;;5.80;1.20;;;;;;;18.63;80.23;100221.19;105929;1271;73083;-79
2022/07/08 08:37:01;;;;;;;3.90;0.90;;;;;;;18.66;79.29;100223.75;105643;1271;69985;-78
2022/07/08 08:39:50;;;;;;;4.30;1.10;;;;;;;18.73;79.49;100229.61;106132;1271;71636;-78
2022/07/08 08:42:40;;;;;;;5.10;1.10;;;;;;;18.63;78.98;100235.41;106041;1271;59643;-80
2022/07/08 08:45:29;;;;;;;4.80;0.90;;;;;;;18.51;79.55;100236.86;106011;1271;59553;-77
2022/07/08 08:48:22;;;;;;;5.20;1.00;;;;;;;18.38;79.99;100239.36;105823;1271;73323;-77
2022/07/08 08:51:13;;;;;;;4.40;1.10;;;;;;;18.13;79.34;100246.48;105729;1274;68215;-75
2022/07/08 08:54:04;;;;;;;5.10;1.00;;;;;;;17.94;79.83;100252.77;105745;1271;74600;-76
2022/07/08 08:56:53;;;;;;;4.40;1.00;;;;;;;17.73;80.62;100251.76;104846;1273;60090;-77
2022/07/08 08:59:46;;;;;;;4.10;0.90;;;;;;;17.64;81.04;100251.45;104873;1274;60370;-76
2022/07/08 09:02:35;;;;;;;4.20;1.00;;;;;;;17.64;81.56;100255.21;105326;1271;73560;-76
2022/07/08 09:05:26;;;;;;;4.70;1.00;;;;;;;17.67;81.83;100254.69;105311;1271;68162;-76
2022/07/08 09:08:14;;;;;;;4.70;1.00;;;;;;;17.71;81.62;100254.27;105826;1271;74219;-79
2022/07/08 09:11:03;;;;;;;5.70;1.00;;;;;;;17.81;81.11;100257.80;106180;1271;60350;-78
2022/07/08 09:14:30;;;;;;;3.80;1.00;;;;;;;17.94;80.25;100256.78;106162;1272;60963;-77
2022/07/08 09:17:19;;;;;;;5.90;1.30;;;;;;;18.38;79.44;100255.52;104560;1280;73542;-79
2022/07/08 09:20:09;;;;;;;5.40;1.00;;;;;;;18.91;77.57;100253.17;104556;1280;69491;-79
2022/07/08 09:22:58;;;;;;;3.90;0.90;;;;;;;19.75;73.00;100249.48;104852;1281;71420;-79
2022/07/08 09:25:50;;;;;;;3.70;0.80;;;;;;;20.99;67.49;100250.30;105093;1281;60060;-77
2022/07/08 09:28:43;;;;;;;4.90;1.20;;;;;;;22.04;61.09;100249.22;104429;1281;60578;-79
2022/07/08 09:31:34;;;;;;;4.30;0.80;;;;;;;22.35;57.68;100246.13;104416;1281;74113;-77
2022/07/08 09:34:22;;;;;;;3.20;0.70;;;;;;;22.49;57.27;100240.82;104155;1281;66606;-77
2022/07/08 09:37:17;;;;;;;3.10;0.70;;;;;;;22.85;57.30;100244.02;104529;1281;73058;-78
2022/07/08 09:40:18;;;;;;;4.60;0.80;;;;;;;23.28;54.13;100244.42;104654;1281;60007;-79
2022/07/08 09:43:13;;;;;;;3.90;0.80;;;;;;;23.54;53.36;100245.88;104663;1281;59848;-77
2022/07/08 09:46:07;;;;;;;5.80;0.90;;;;;;;23.47;53.27;100245.69;104636;1281;72268;-77
2022/07/08 09:48:55;;;;;;;3.50;0.70;;;;;;;23.38;54.26;100244.08;104721;1271;67067;-79
2022/07/08 09:51:46;;;;;;;3.60;0.70;;;;;;;23.36;54.57;100249.16;104932;1274;73025;-78
2022/07/08 09:54:34;;;;;;;4.90;0.90;;;;;;;23.25;54.19;100249.29;105272;1271;59695;-77
2022/07/08 09:57:24;;;;;;;3.60;0.60;;;;;;;23.52;53.58;100253.77;105025;1271;59649;-78
2022/07/08 10:00:14;;;;;;;4.10;0.90;;;;;;;23.81;52.58;100250.13;105442;1271;73742;-79
2022/07/08 10:03:04;;;;;;;3.00;0.60;;;;;;;23.81;52.47;100253.84;105075;1271;67845;-79
2022/07/08 10:05:54;;;;;;;4.70;0.90;;;;;;;24.03;51.82;100258.35;104960;1271;72941;-79
2022/07/08 10:08:42;;;;;;;5.30;0.90;;;;;;;23.84;51.70;100259.21;105167;1271;59578;-80
2022/07/08 10:11:31;;;;;;;3.40;0.70;;;;;;;23.30;52.17;100264.05;105395;1271;60269;-78
2022/07/08 10:14:19;;;;;;;4.40;0.80;;;;;;;22.46;53.45;100273.90;105106;1274;72984;-79
2022/07/08 10:17:14;;;;;;;4.40;1.00;;;;;;;21.70;55.92;100277.70;105217;1270;68528;-78
2022/07/08 10:20:03;;;;;;;5.00;0.80;;;;;;;21.05;57.85;100275.57;105178;1274;73007;-78
2022/07/08 10:22:57;;;;;;;3.50;0.70;;;;;;;20.67;59.39;100276.23;104851;1272;59621;-78
2022/07/08 10:25:46;;;;;;;3.20;0.70;;;;;;;20.49;60.17;100274.89;105725;1271;61346;-77
2022/07/08 10:28:39;;;;;;;3.80;0.70;;;;;;;20.39;59.16;100272.20;105112;1269;73615;-77
2022/07/08 10:31:29;;;;;;;4.60;0.90;;;;;;;20.51;59.02;100269.64;105313;1271;68181;-78
2022/07/08 10:34:22;;;;;;;3.40;0.70;;;;;;;20.81;58.59;100275.30;105326;1271;73818;-76
2022/07/08 10:37:10;;;;;;;3.90;0.80;;;;;;;21.21;56.51;100271.50;105064;1271;59653;-78
2022/07/08 10:39:58;;;;;;;3.30;0.70;;;;;;;22.07;53.78;100272.72;105355;1271;59469;-78
2022/07/08 10:43:18;;;;;;;4.90;0.80;;;;;;;23.48;48.85;100268.22;105143;1271;73032;-76
2022/07/08 10:46:18;;;;;;;5.30;0.90;;;;;;;25.26;45.20;100260.56;105362;1271;67899;-79
2022/07/08 10:49:16;;;;;;;4.30;0.70;;;;;;;26.20;42.44;100261.24;106178;1271;73098;-76
2022/07/08 10:52:05;;;;;;;2.70;0.60;;;;;;;26.12;41.82;100265.35;105281;1272;59822;-77
2022/07/08 10:55:15;;;;;;;4.20;0.70;;;;;;;26.13;41.38;100267.86;105153;1271;60439;-77
2022/07/08 10:58:03;;;;;;;3.60;0.60;;;;;;;26.21;39.00;100265.27;105308;1271;74519;-79
2022/07/08 11:01:40;;;;;;;3.40;0.70;;;;;;;26.21;38.47;100269.80;105167;1272;66796;-78
2022/07/08 11:04:33;;;;;;;2.90;0.60;;;;;;;26.46;38.21;100271.34;105104;1271;73884;-75
2022/07/08 11:07:26;;;;;;;3.80;0.70;;;;;;;26.96;35.56;100268.33;105161;1271;59981;-74
2022/07/08 11:10:14;;;;;;;2.80;0.60;;;;;;;27.57;33.87;100271.83;105008;1271;60568;-74
2022/07/08 11:13:02;;;;;;;2.70;0.60;;;;;;;28.15;33.83;100271.66;105288;1271;74549;-73
2022/07/08 11:15:51;;;;;;;2.30;0.40;;;;;;;28.07;31.77;100272.70;105123;1271;68594;-75
2022/07/08 11:18:39;;;;;;;4.50;0.80;;;;;;;27.83;31.74;100275.39;105117;1271;74448;-75
2022/07/08 11:21:28;;;;;;;3.40;0.60;;;;;;;27.60;31.94;100278.25;105076;1271;60060;-77
2022/07/08 11:24:17;;;;;;;3.00;0.60;;;;;;;27.58;32.27;100279.84;105087;1271;61594;-76
2022/07/08 11:27:06;;;;;;;3.50;0.60;;;;;;;27.45;31.79;100278.62;104963;1271;73896;-73
2022/07/08 11:29:55;;;;;;;4.60;0.50;;;;;;;27.47;32.35;100288.41;104955;1271;68395;-73
2022/07/08 11:32:48;;;;;;;3.40;0.60;;;;;;;27.56;32.44;100284.02;104933;1271;74277;-77
2022/07/08 11:35:39;;;;;;;4.30;0.80;;;;;;;27.78;31.44;100285.25;105348;1271;59700;-74
2022/07/08 11:38:38;;;;;;;4.30;0.70;;;;;;;27.91;30.97;100289.02;105318;1272;60261;-75
2022/07/08 11:41:26;;;;;;;4.30;0.70;;;;;;;27.98;30.88;100289.95;105162;1271;72941;-76
2022/07/08 11:44:18;;;;;;;2.60;0.60;;;;;;;27.86;30.55;100297.23;105012;1271;67793;-76
2022/07/08 11:47:10;;;;;;;3.20;0.80;;;;;;;27.53;30.92;100301.24;105067;1271;74364;-75
2022/07/08 11:49:58;;;;;;;2.50;0.50;;;;;;;27.07;31.22;100307.98;105093;1271;59714;-76
2022/07/08 11:52:46;;;;;;;2.90;0.60;;;;;;;26.52;31.42;100317.81;105354;1271;59640;-78
2022/07/08 11:55:44;;;;;;;3.10;0.70;;;;;;;26.09;32.14;100316.08;105026;1271;73135;-79
2022/07/08 11:58:32;;;;;;;3.10;0.60;;;;;;;25.73;33.22;100313.60;105099;1271;67767;-79
2022/07/08 12:01:20;;;;;;;3.40;0.70;;;;;;;25.36;31.73;100312.42;105038;1271;71749;-78
2022/07/08 12:04:08;;;;;;;2.80;0.60;;;;;;;24.98;32.79;100316.44;105349;1271;59749;-78
2022/07/08 12:07:01;;;;;;;4.40;0.70;;;;;;;24.77;34.47;100318.96;105660;1271;59677;-77
2022/07/08 12:10:08;;;;;;;2.80;0.50;;;;;;;24.46;35.10;100324.42;105143;1271;73526;-79
2022/07/08 12:12:57;;;;;;;5.10;1.00;;;;;;;24.08;35.50;100323.98;105040;1271;69689;-78
2022/07/08 12:15:46;;;;;;;3.00;0.60;;;;;;;24.03;35.97;100323.12;105080;1271;73680;-76
2022/07/08 12:18:44;;;;;;;5.10;1.10;;;;;;;23.97;37.01;100318.83;105767;1271;59631;-74
2022/07/08 12:21:32;;;;;;;5.70;1.20;;;;;;;23.81;38.09;100315.55;105079;1271;62025;-67
2022/07/08 12:24:32;;;;;;;7.10;1.70;;;;;;;23.59;38.63;100321.64;104853;1271;73057;-74
2022/07/08 12:27:28;;;;;;;3.80;0.80;;;;;;;23.50;39.52;100319.77;105084;1271;67245;-69
2022/07/08 12:30:16;;;;;;;4.80;0.90;;;;;;;23.45;39.77;100322.62;105035;1272;73245;-71
2022/07/08 12:33:04;;;;;;;3.90;0.90;;;;;;;23.34;39.75;100328.14;104960;1271;59717;-78
2022/07/08 12:36:27;;;;;;;5.80;0.90;;;;;;;23.15;39.73;100322.25;104994;1274;59656;-77
2022/07/08 12:39:17;;;;;;;4.60;0.90;;;;;;;22.94;40.06;100333.90;105185;1273;73707;-69
2022/07/08 12:42:06;;;;;;;4.70;1.00;;;;;;;22.75;40.48;100333.34;105098;1274;66845;-72
2022/07/08 12:44:54;;;;;;;3.90;0.80;;;;;;;22.69;41.58;100337.16;104938;1274;72180;-70
2022/07/08 12:47:44;;;;;;;4.80;1.00;;;;;;;22.40;42.75;100329.40;104819;1274;60179;-74
2022/07/08 12:50:34;;;;;;;3.80;0.80;;;;;;;22.25;43.47;100330.85;104718;1274;59671;-73
2022/07/08 12:53:22;;;;;;;4.90;0.90;;;;;;;22.09;44.65;100334.27;104761;1274;74880;-76
2022/07/08 12:56:10;;;;;;;5.30;0.90;;;;;;;22.07;45.18;100336.13;104967;1273;68651;-72
2022/07/08 12:58:58;;;;;;;3.00;0.70;;;;;;;22.07;45.25;100332.97;105128;1273;74432;-74
2022/07/08 13:01:46;;;;;;;5.90;0.90;;;;;;;22.07;43.95;100333.34;105090;1271;59781;-70